Terminal Aerodrome Forecast
Issued by NWS

Home | Current Version | Previous Version | Text Only | Print | Product List | Glossary On
Versions: 1 2 3 4 5 6 7 8 9 10 11 12 13
215
FTUS45 KABQ 242320
TAFSAF
TAF
KSAF 242320Z 2500/2524 27020G30KT P6SM BKN200
     FM250300 28013KT P6SM SCT070 BKN150
     FM251400 25014G21KT 5SM -RA BR OVC020
     FM252100 29020G30KT P6SM VCSH OVC035=

USA.gov is the U.S. government's official web portal to all federal, state and local government web resources and services.